Time;durP1;ratioP1;P1;durP2;ratioP2;P2;SDS_P1;SDS_P2;PMS_P1;PMS_P2;Temp;Humidity;BMP_temperature;BMP_pressure;BME280_temperature;BME280_humidity;BME280_pressure;Samples;Min_cycle;Max_cycle;Signal;HPM_P1;HPM_P2
2023/04/05 04:01:52;;;;;;;12.70;6.12;;;;;;;-0.28;70.39;100722.78;6157530;27;20147;-83
2023/04/05 04:04:57;;;;;;;12.88;5.57;;;;;;;-0.24;70.19;100718.97;5313089;33;34002;-83
2023/04/05 04:08:00;;;;;;;12.27;6.07;;;;;;;-0.29;70.39;100721.09;5334821;33;33946;-83
2023/04/05 04:11:03;;;;;;;8.32;5.18;;;;;;;-0.30;70.50;100724.66;5329057;33;35412;-83
2023/04/05 04:14:07;;;;;;;7.85;4.80;;;;;;;-0.36;71.02;100719.78;5301164;33;34137;-83
2023/04/05 04:17:10;;;;;;;10.07;5.65;;;;;;;-0.17;70.27;100726.53;5312972;33;33968;-83
2023/04/05 04:20:14;;;;;;;12.80;6.03;;;;;;;-0.28;71.04;100725.44;5313445;33;34022;-83
2023/04/05 04:23:19;;;;;;;7.40;4.70;;;;;;;-0.29;70.86;100731.69;5313521;33;33881;-83
2023/04/05 04:26:27;;;;;;;8.55;4.65;;;;;;;-0.26;70.52;100728.81;5325550;33;33984;-83
2023/04/05 04:29:37;;;;;;;7.05;4.70;;;;;;;-0.17;70.29;100734.47;5313442;33;33514;-84
2023/04/05 04:32:54;;;;;;;10.70;5.60;;;;;;;-0.12;69.45;100735.00;5312839;33;34370;-83
2023/04/05 04:36:01;;;;;;;7.87;5.53;;;;;;;-0.12;69.96;100727.06;5313515;33;33837;-83
2023/04/05 04:39:04;;;;;;;9.80;5.45;;;;;;;-0.03;68.85;100726.44;5321840;33;33804;-84
2023/04/05 04:42:10;;;;;;;10.05;4.93;;;;;;;-0.11;70.57;100726.13;5311983;33;35274;-83
2023/04/05 04:45:18;;;;;;;6.43;4.57;;;;;;;-0.05;69.17;100728.37;5306117;33;34655;-82
2023/04/05 04:48:21;;;;;;;14.73;5.45;;;;;;;-0.03;69.02;100734.41;5314221;33;33684;-83
2023/04/05 04:51:25;;;;;;;9.93;5.80;;;;;;;-0.01;69.94;100732.50;5314783;33;34743;-83
2023/04/05 04:54:32;;;;;;;10.40;4.97;;;;;;;0.08;67.93;100734.53;5325532;33;33595;-83
2023/04/05 04:57:35;;;;;;;10.20;5.82;;;;;;;-0.02;68.98;100730.81;5311851;33;33422;-84
2023/04/05 05:00:40;;;;;;;9.25;5.40;;;;;;;0.00;69.27;100739.50;5312190;33;35789;-84
2023/04/05 05:03:44;;;;;;;9.80;5.70;;;;;;;-0.03;69.46;100740.56;5308509;33;34064;-88
2023/04/05 05:06:50;;;;;;;8.43;5.40;;;;;;;-0.03;69.42;100742.34;5307239;33;35451;-88
2023/04/05 05:09:53;;;;;;;9.65;5.70;;;;;;;0.12;68.06;100745.78;5307685;33;33640;-84
2023/04/05 05:12:56;;;;;;;10.55;5.75;;;;;;;0.07;68.32;100742.59;5307555;33;34540;-84
2023/04/05 05:16:00;;;;;;;15.85;6.25;;;;;;;0.24;67.66;100750.25;5317536;33;33554;-84
2023/04/05 05:19:04;;;;;;;11.38;6.65;;;;;;;0.26;68.22;100744.84;5307045;33;32567;-84
2023/04/05 05:22:11;;;;;;;16.00;6.37;;;;;;;0.35;67.22;100749.53;5308093;33;34712;-84
2023/04/05 05:25:14;;;;;;;11.32;6.10;;;;;;;0.46;66.52;100744.34;5307030;33;33511;-84
2023/04/05 05:28:17;;;;;;;9.20;5.25;;;;;;;0.61;65.45;100745.97;5307899;33;34068;-84
2023/04/05 05:31:20;;;;;;;13.62;6.00;;;;;;;0.66;64.73;100753.59;5306503;33;34062;-84
2023/04/05 05:34:23;;;;;;;12.40;5.95;;;;;;;1.11;63.99;100754.88;5318326;33;33870;-84
2023/04/05 05:37:31;;;;;;;10.30;5.65;;;;;;;1.23;62.42;100750.50;5308517;33;33914;-84
2023/04/05 05:40:34;;;;;;;12.63;6.18;;;;;;;1.19;62.11;100756.13;5306341;33;34768;-84
2023/04/05 05:43:37;;;;;;;15.68;7.97;;;;;;;1.24;61.77;100746.06;5288527;33;33422;-85
2023/04/05 05:46:40;;;;;;;8.18;6.10;;;;;;;1.30;61.26;100746.47;5305853;33;34632;-85
2023/04/05 05:49:43;;;;;;;11.55;5.90;;;;;;;1.37;60.31;100744.22;5307677;33;33656;-85
2023/04/05 05:52:46;;;;;;;10.57;5.72;;;;;;;1.34;59.95;100747.91;5308115;33;33911;-85
2023/04/05 05:55:49;;;;;;;10.63;5.65;;;;;;;1.54;60.10;100743.84;5294493;33;33474;-84
2023/04/05 05:58:52;;;;;;;11.07;6.32;;;;;;;1.65;59.24;100740.41;5318673;33;34849;-85
2023/04/05 06:01:55;;;;;;;11.57;6.05;;;;;;;1.94;58.69;100746.25;5318336;33;35262;-85
2023/04/05 06:04:58;;;;;;;9.20;5.87;;;;;;;1.92;56.83;100740.19;5311356;33;34570;-84
2023/04/05 06:08:02;;;;;;;9.88;5.72;;;;;;;2.11;56.37;100741.50;5305768;33;32868;-84
2023/04/05 06:11:05;;;;;;;13.23;6.07;;;;;;;2.07;57.37;100743.53;5324019;33;34221;-85
2023/04/05 06:14:08;;;;;;;10.23;5.90;;;;;;;2.37;56.32;100751.03;5300258;33;34732;-84
2023/04/05 06:17:11;;;;;;;10.52;5.15;;;;;;;2.72;56.32;100745.66;5299790;33;32987;-85
2023/04/05 06:20:14;;;;;;;9.15;5.65;;;;;;;2.86;53.50;100746.41;5311594;33;34133;-84
2023/04/05 06:23:17;;;;;;;10.68;5.20;;;;;;;2.81;52.90;100749.44;5312460;33;33666;-84
2023/04/05 06:26:23;;;;;;;8.10;4.40;;;;;;;2.82;52.22;100745.78;5309872;33;34401;-85
2023/04/05 06:29:26;;;;;;;8.25;3.75;;;;;;;2.80;50.94;100749.53;5324712;33;33880;-85
2023/04/05 06:32:29;;;;;;;7.25;3.67;;;;;;;2.92;49.59;100745.91;5322572;33;34166;-84
2023/04/05 06:35:35;;;;;;;4.95;3.58;;;;;;;3.14;48.96;100750.41;5315244;33;33926;-84
2023/04/05 06:38:38;;;;;;;5.47;3.75;;;;;;;3.75;47.79;100748.16;5316911;33;32029;-84
2023/04/05 06:41:41;;;;;;;5.57;4.15;;;;;;;4.23;45.70;100752.25;5333513;33;34086;-84
2023/04/05 06:44:43;;;;;;;5.45;3.85;;;;;;;4.59;47.09;100742.97;5303116;33;33954;-82
2023/04/05 06:47:48;;;;;;;6.78;4.37;;;;;;;4.59;45.00;100744.78;5307128;33;34234;-83
2023/04/05 06:50:58;;;;;;;5.30;3.70;;;;;;;4.56;44.28;100753.88;5309578;33;34007;-83
2023/04/05 06:54:01;;;;;;;8.82;4.53;;;;;;;4.32;45.06;100754.12;5323812;33;33989;-83
2023/04/05 06:57:04;;;;;;;6.32;3.62;;;;;;;4.38;45.41;100753.62;5299711;33;32607;-83
2023/04/05 07:00:10;;;;;;;6.03;4.18;;;;;;;4.21;45.42;100747.06;5311250;33;34825;-83
2023/04/05 07:03:15;;;;;;;6.43;3.62;;;;;;;4.31;44.55;100745.31;5310957;33;34009;-87
2023/04/05 07:06:18;;;;;;;5.75;3.92;;;;;;;4.46;43.22;100742.31;5301047;33;33498;-87
2023/04/05 07:09:24;;;;;;;5.28;3.65;;;;;;;4.51;44.11;100750.78;5322234;33;34204;-86
2023/04/05 07:12:27;;;;;;;4.28;3.58;;;;;;;4.68;43.68;100750.22;5323633;33;34479;-85
2023/04/05 07:15:30;;;;;;;8.73;4.28;;;;;;;4.27;43.21;100745.66;5321186;33;33552;-85
2023/04/05 07:18:33;;;;;;;7.57;4.53;;;;;;;4.07;44.03;100753.53;5321478;33;33977;-85
2023/04/05 07:21:35;;;;;;;5.70;4.07;;;;;;;4.26;44.03;100757.31;5309064;33;35305;-85
2023/04/05 07:24:39;;;;;;;8.57;4.37;;;;;;;4.41;44.99;100749.84;5321602;33;34658;-85
2023/04/05 07:27:42;;;;;;;5.30;3.87;;;;;;;4.45;43.99;100751.31;5310832;33;33700;-85
2023/04/05 07:30:45;;;;;;;5.85;3.65;;;;;;;4.91;44.34;100755.37;5323302;33;34331;-84
2023/04/05 07:33:48;;;;;;;7.65;4.68;;;;;;;5.13;42.78;100749.88;5298439;33;33550;-85
2023/04/05 07:36:51;;;;;;;8.13;3.92;;;;;;;5.19;41.93;100744.00;5309285;33;33890;-85
2023/04/05 07:39:54;;;;;;;4.68;3.50;;;;;;;4.71;41.84;100736.59;5311665;33;33518;-85
2023/04/05 07:42:58;;;;;;;8.80;4.45;;;;;;;4.49;43.70;100740.25;5312992;33;34631;-85
2023/04/05 07:46:02;;;;;;;8.10;4.35;;;;;;;4.61;42.78;100741.03;5312987;33;35094;-85
2023/04/05 07:49:06;;;;;;;5.95;4.10;;;;;;;4.65;42.72;100744.25;5325657;33;34566;-85
2023/04/05 07:52:09;;;;;;;6.43;3.90;;;;;;;4.82;42.18;100746.34;5301085;33;34361;-85
2023/04/05 07:55:12;;;;;;;8.55;4.05;;;;;;;4.74;42.39;100739.00;5313793;33;33582;-85
2023/04/05 07:58:15;;;;;;;9.02;4.32;;;;;;;4.69;42.01;100735.87;5298800;33;33469;-84
2023/04/05 08:01:19;;;;;;;5.20;4.37;;;;;;;4.90;43.67;100737.69;5314151;33;34979;-84
2023/04/05 08:04:23;;;;;;;5.82;3.97;;;;;;;4.96;42.66;100740.66;5323179;33;33744;-84
2023/04/05 08:07:26;;;;;;;4.72;3.80;;;;;;;5.11;43.41;100743.81;5323414;33;33982;-85
2023/04/05 08:10:31;;;;;;;5.30;4.10;;;;;;;5.20;42.46;100734.16;5310505;33;34625;-82
2023/04/05 08:13:35;;;;;;;7.82;4.12;;;;;;;5.10;42.15;100730.62;5324248;33;34107;-82
2023/04/05 08:16:38;;;;;;;7.90;3.97;;;;;;;5.46;41.44;100730.03;5327243;33;33467;-81
2023/04/05 08:19:42;;;;;;;11.68;5.07;;;;;;;5.58;42.85;100730.78;5301460;33;32249;-81
2023/04/05 08:22:45;;;;;;;5.90;3.97;;;;;;;5.79;43.09;100735.19;5325130;33;33943;-83
2023/04/05 08:25:48;;;;;;;5.18;4.12;;;;;;;5.76;41.45;100736.31;5303332;33;34211;-83
2023/04/05 08:28:53;;;;;;;15.90;4.55;;;;;;;5.54;41.07;100728.53;5331131;33;33627;-82
2023/04/05 08:31:59;;;;;;;4.68;3.90;;;;;;;5.62;42.33;100729.53;5325755;33;33745;-82
2023/04/05 08:35:19;;;;;;;6.35;3.72;;;;;;;5.85;41.27;100730.16;5303933;33;34883;-83
2023/04/05 08:38:22;;;;;;;13.23;4.55;;;;;;;5.86;40.88;100722.97;5318306;33;33792;-82
2023/04/05 08:41:34;;;;;;;5.57;4.03;;;;;;;5.84;40.81;100730.28;5302404;33;33979;-82
2023/04/05 08:44:40;;;;;;;4.85;3.85;;;;;;;5.96;40.13;100718.50;5307801;33;34533;-83
2023/04/05 08:47:45;;;;;;;5.57;3.60;;;;;;;6.15;40.59;100723.03;5321454;33;33878;-81
2023/04/05 08:50:52;;;;;;;5.43;4.05;;;;;;;6.30;40.39;100716.25;5314324;33;34303;-81
2023/04/05 08:53:55;;;;;;;5.75;3.30;;;;;;;6.23;39.55;100711.59;5313748;33;33937;-86
2023/04/05 08:56:58;;;;;;;6.57;4.20;;;;;;;6.36;40.02;100720.19;5326494;33;34685;-86
2023/04/05 09:00:03;;;;;;;5.22;3.60;;;;;;;6.49;41.77;100710.06;5314030;33;33520;-83
2023/04/05 09:03:07;;;;;;;8.05;4.45;;;;;;;6.54;39.53;100714.97;5326870;33;34281;-84
2023/04/05 09:06:12;;;;;;;4.65;3.45;;;;;;;6.78;39.71;100714.47;5321971;33;33998;-84
2023/04/05 09:09:16;;;;;;;6.45;4.18;;;;;;;6.59;40.69;100704.69;5311335;33;33927;-84
2023/04/05 09:12:23;;;;;;;8.15;4.60;;;;;;;6.55;40.04;100711.28;5305162;33;33984;-83
2023/04/05 09:15:26;;;;;;;8.05;4.28;;;;;;;6.71;40.28;100708.88;5328998;33;33779;-84
2023/04/05 09:18:30;;;;;;;8.32;4.00;;;;;;;6.86;38.17;100701.22;5330348;33;33603;-85
2023/04/05 09:22:08;;;;;;;9.77;4.45;;;;;;;6.93;39.91;100698.78;5306425;33;34051;-85
2023/04/05 09:25:31;;;;;;;8.30;4.12;;;;;;;7.32;39.05;100701.31;5310448;33;33910;-85
2023/04/05 09:28:44;;;;;;;6.72;4.60;;;;;;;6.89;37.68;100714.31;5320592;33;33841;-85
2023/04/05 09:31:47;;;;;;;8.65;4.15;;;;;;;6.93;40.05;100699.66;5312473;33;34007;-85
2023/04/05 09:34:52;;;;;;;6.00;3.90;;;;;;;6.80;38.05;100699.97;5299981;33;33768;-85
2023/04/05 09:37:59;;;;;;;5.47;4.25;;;;;;;6.96;38.67;100691.34;5323502;33;33846;-85
2023/04/05 09:41:09;;;;;;;6.20;4.43;;;;;;;6.89;37.97;100700.94;5333410;33;33480;-85
2023/04/05 09:44:12;;;;;;;4.70;4.10;;;;;;;6.91;37.68;100696.28;5322399;33;34395;-84
2023/04/05 09:47:16;;;;;;;7.68;4.10;;;;;;;6.87;37.34;100694.87;5328450;33;34087;-85
2023/04/05 09:50:19;;;;;;;6.40;4.53;;;;;;;7.39;37.74;100687.16;5305299;33;33989;-84
2023/04/05 09:53:22;;;;;;;6.60;4.20;;;;;;;7.62;38.61;100698.31;5317190;33;34365;-84
2023/04/05 09:56:30;;;;;;;7.30;4.45;;;;;;;7.79;37.13;100683.25;5301915;33;290624;-84
2023/04/05 09:59:34;;;;;;;8.88;5.37;;;;;;;7.41;36.77;100681.69;5323378;33;35213;-85
2023/04/05 10:02:38;;;;;;;5.45;3.95;;;;;;;7.47;37.36;100681.91;5311106;33;33367;-89
2023/04/05 10:05:43;;;;;;;5.80;4.53;;;;;;;7.56;37.35;100668.63;5325122;33;33513;-89
2023/04/05 10:08:46;;;;;;;6.22;4.20;;;;;;;7.95;36.90;100666.47;5326910;33;33556;-85
2023/04/05 10:11:50;;;;;;;38.33;6.68;;;;;;;8.25;35.86;100672.41;5311603;33;33530;-83
2023/04/05 10:14:54;;;;;;;6.68;4.37;;;;;;;8.93;35.85;100664.53;5300945;33;33792;-83
2023/04/05 10:18:09;;;;;;;7.90;4.90;;;;;;;9.22;33.98;100666.84;5311418;33;33838;-83
2023/04/05 10:21:19;;;;;;;12.37;5.65;;;;;;;8.51;35.67;100667.97;5324843;33;33825;-83
2023/04/05 10:24:39;;;;;;;6.60;5.00;;;;;;;8.07;36.91;100667.94;5330273;33;33724;-83
2023/04/05 10:27:47;;;;;;;7.00;4.50;;;;;;;7.90;37.93;100664.28;5331984;33;33782;-83
2023/04/05 10:30:54;;;;;;;7.10;4.50;;;;;;;7.98;35.37;100662.66;5313501;33;33851;-83
2023/04/05 10:34:10;;;;;;;6.12;4.37;;;;;;;8.18;36.02;100661.47;5325872;33;34985;-84
2023/04/05 10:37:47;;;;;;;5.37;4.30;;;;;;;8.56;34.66;100659.44;5326018;33;34072;-84
2023/04/05 10:41:11;;;;;;;5.87;4.10;;;;;;;8.77;37.31;100653.69;5324239;33;33910;-84
2023/04/05 10:44:14;;;;;;;7.07;4.70;;;;;;;8.75;34.32;100647.66;5324701;33;33919;-84
2023/04/05 10:47:31;;;;;;;6.25;4.32;;;;;;;9.16;36.73;100647.84;5307045;33;33599;-88
2023/04/05 10:50:38;;;;;;;5.30;4.30;;;;;;;9.19;33.51;100643.00;5305551;33;34349;-84
2023/04/05 10:53:42;;;;;;;7.95;4.55;;;;;;;9.33;32.84;100644.22;5312208;33;34514;-84
2023/04/05 10:56:46;;;;;;;6.40;4.35;;;;;;;9.81;31.80;100644.50;5312152;33;35650;-85
2023/04/05 10:59:49;;;;;;;5.05;4.05;;;;;;;10.19;31.16;100638.44;5311065;33;33927;-85
2023/04/05 11:02:55;;;;;;;6.75;4.18;;;;;;;9.92;32.17;100638.78;5305291;33;33860;-84
2023/04/05 11:06:29;;;;;;;6.40;4.35;;;;;;;10.17;31.37;100631.53;5308809;33;35026;-85
2023/04/05 11:09:33;;;;;;;7.35;4.70;;;;;;;9.58;31.14;100633.53;5308401;33;35511;-84
2023/04/05 11:12:45;;;;;;;8.02;4.85;;;;;;;9.51;31.81;100644.09;5304166;33;33879;-85
2023/04/05 11:16:08;;;;;;;5.37;4.28;;;;;;;10.03;31.34;100633.06;5306724;33;34403;-85
2023/04/05 11:19:10;;;;;;;4.53;3.58;;;;;;;10.86;31.10;100637.34;5307375;33;33809;-85
2023/04/05 11:22:26;;;;;;;4.68;3.37;;;;;;;11.15;29.45;100631.34;5287487;33;33925;-85
2023/04/05 11:25:29;;;;;;;4.40;3.75;;;;;;;11.24;28.58;100632.16;5303537;33;35684;-84
2023/04/05 11:28:39;;;;;;;6.70;4.37;;;;;;;11.88;28.69;100627.41;5306004;33;33402;-84
2023/04/05 11:32:00;;;;;;;4.53;3.60;;;;;;;12.12;29.52;100628.22;5307139;33;33927;-84
2023/04/05 11:35:22;;;;;;;5.12;3.97;;;;;;;12.77;26.81;100622.16;5307290;33;35360;-84
2023/04/05 11:38:24;;;;;;;5.68;3.72;;;;;;;13.54;25.62;100627.13;5306470;33;34568;-89
2023/04/05 11:41:32;;;;;;;6.30;4.00;;;;;;;14.34;26.10;100618.94;5295749;33;34364;-86
2023/04/05 11:44:46;;;;;;;4.93;3.92;;;;;;;14.19;24.39;100616.31;5305358;33;33892;-85
2023/04/05 11:47:50;;;;;;;6.15;3.92;;;;;;;14.94;24.65;100612.88;5302743;33;32210;-85
2023/04/05 11:50:53;;;;;;;5.60;4.05;;;;;;;16.14;21.73;100609.69;5305063;33;34784;-85
2023/04/05 11:53:56;;;;;;;4.50;3.97;;;;;;;15.97;20.98;100601.09;5307864;33;33904;-85
2023/04/05 11:57:00;;;;;;;6.07;4.07;;;;;;;17.36;21.96;100594.56;5307199;33;35609;-85
2023/04/05 12:00:03;;;;;;;5.80;3.58;;;;;;;18.69;19.73;100588.09;5315659;33;34600;-85
2023/04/05 12:03:16;;;;;;;5.43;3.40;;;;;;;19.43;18.96;100586.19;5301676;33;33726;-85
2023/04/05 12:06:24;;;;;;;4.40;3.35;;;;;;;19.29;18.36;100581.97;5304000;33;33603;-85
2023/04/05 12:09:27;;;;;;;6.55;3.83;;;;;;;20.62;19.40;100580.72;5306112;33;33907;-85
2023/04/05 12:12:38;;;;;;;4.62;3.67;;;;;;;20.93;18.52;100578.69;5306557;33;33457;-85
2023/04/05 12:15:41;;;;;;;3.95;3.55;;;;;;;20.84;17.27;100586.44;5313499;33;33959;-85
2023/04/05 12:18:52;;;;;;;4.43;3.50;;;;;;;21.24;18.56;100588.34;5318956;33;35398;-85
2023/04/05 12:21:58;;;;;;;5.15;3.78;;;;;;;21.92;16.35;100572.94;5308157;33;33560;-85
2023/04/05 12:25:01;;;;;;;6.40;3.67;;;;;;;22.81;17.00;100564.69;5310643;33;34021;-85
2023/04/05 12:28:08;;;;;;;4.53;3.50;;;;;;;22.60;15.90;100571.00;5313031;33;33967;-86
2023/04/05 12:31:11;;;;;;;5.15;3.83;;;;;;;21.46;16.26;100561.97;5322548;33;33845;-85
2023/04/05 12:34:14;;;;;;;5.00;3.67;;;;;;;20.75;17.03;100560.50;5309608;33;34656;-85
2023/04/05 12:37:17;;;;;;;4.03;3.20;;;;;;;21.13;17.60;100564.59;5307128;33;34874;-85
2023/04/05 12:40:22;;;;;;;4.25;3.37;;;;;;;21.49;18.29;100555.16;5307461;33;35275;-86
2023/04/05 12:43:25;;;;;;;5.25;3.58;;;;;;;23.57;15.36;100552.13;5307961;33;35043;-85
2023/04/05 12:46:48;;;;;;;4.40;3.28;;;;;;;23.98;14.87;100545.09;5307974;33;34565;-85
2023/04/05 12:49:53;;;;;;;3.97;3.40;;;;;;;24.03;15.46;100550.66;5309052;33;33967;-85
2023/04/05 12:53:04;;;;;;;7.53;3.20;;;;;;;23.50;14.42;100552.34;5306819;33;34514;-85
2023/04/05 12:56:09;;;;;;;3.90;3.30;;;;;;;24.11;13.43;100546.59;5309275;33;33983;-90
2023/04/05 12:59:12;;;;;;;9.90;3.10;;;;;;;24.36;15.24;100541.25;5295716;33;33829;-86
2023/04/05 13:02:15;;;;;;;4.80;2.90;;;;;;;26.87;13.62;100528.66;5310145;33;34962;-86
2023/04/05 13:05:28;;;;;;;3.83;3.00;;;;;;;26.64;12.88;100529.31;5325940;33;34330;-85
2023/04/05 13:08:32;;;;;;;5.30;3.67;;;;;;;26.92;13.30;100528.66;5302539;33;33918;-85
2023/04/05 13:11:35;;;;;;;5.03;3.45;;;;;;;25.86;13.15;100527.78;5296092;33;34009;-85
2023/04/05 13:14:38;;;;;;;3.92;3.20;;;;;;;24.52;13.87;100528.44;5313327;33;33919;-85
2023/04/05 13:17:44;;;;;;;4.32;3.58;;;;;;;23.93;14.16;100523.91;5313733;33;33419;-85
2023/04/05 13:20:47;;;;;;;5.53;3.58;;;;;;;23.77;14.48;100524.84;5326518;33;34602;-85
2023/04/05 13:23:51;;;;;;;4.68;3.30;;;;;;;25.48;14.85;100520.84;5313571;33;33595;-85
2023/04/05 13:26:54;;;;;;;6.50;3.53;;;;;;;25.43;13.61;100516.13;5314508;33;33890;-85
2023/04/05 13:29:57;;;;;;;6.85;3.22;;;;;;;24.51;14.13;100517.69;5313414;33;34017;-85
2023/04/05 13:33:02;;;;;;;4.03;3.65;;;;;;;23.20;15.99;100517.97;5326098;33;34522;-85
2023/04/05 13:36:06;;;;;;;3.80;3.50;;;;;;;21.53;16.12;100518.00;5325850;33;33986;-85
2023/04/05 13:39:09;;;;;;;6.22;4.03;;;;;;;20.95;16.76;100510.84;5329831;33;34604;-85
2023/04/05 13:42:14;;;;;;;7.15;4.10;;;;;;;20.47;17.44;100518.28;5318648;33;34612;-85
2023/04/05 13:45:17;;;;;;;4.45;3.58;;;;;;;20.49;17.13;100513.41;5313054;33;34553;-84
2023/04/05 13:48:20;;;;;;;4.12;3.72;;;;;;;19.97;19.43;100513.31;5326381;33;33563;-85
2023/04/05 13:51:23;;;;;;;3.78;3.47;;;;;;;21.96;16.78;100509.09;5311663;33;33920;-84
2023/04/05 13:54:26;;;;;;;4.97;3.87;;;;;;;22.88;15.88;100506.88;5323659;33;34331;-85
2023/04/05 13:57:29;;;;;;;6.12;4.12;;;;;;;22.98;15.60;100508.91;5300051;33;34051;-85
2023/04/05 14:00:32;;;;;;;4.70;3.92;;;;;;;22.49;16.62;100504.16;5312054;33;33840;-85
2023/04/05 14:03:35;;;;;;;4.90;3.62;;;;;;;22.75;15.19;100504.50;5312521;33;33799;-84
2023/04/05 14:06:38;;;;;;;5.20;3.53;;;;;;;22.36;15.27;100507.28;5325773;33;33517;-85
2023/04/05 14:09:43;;;;;;;5.78;3.60;;;;;;;21.02;17.45;100500.56;5318780;33;34243;-85
2023/04/05 14:12:46;;;;;;;5.45;3.87;;;;;;;22.41;17.25;100496.38;5322371;33;33866;-85
2023/04/05 14:15:49;;;;;;;4.50;3.60;;;;;;;23.52;15.90;100493.28;5329955;33;34164;-84
2023/04/05 14:18:53;;;;;;;6.45;3.87;;;;;;;23.58;15.58;100496.91;5328343;33;34094;-85
2023/04/05 14:21:56;;;;;;;5.32;3.87;;;;;;;21.05;17.08;100498.16;5328698;33;34165;-85
2023/04/05 14:24:59;;;;;;;5.35;4.10;;;;;;;19.76;17.15;100506.50;5329403;33;33984;-84
2023/04/05 14:28:02;;;;;;;4.90;4.03;;;;;;;18.56;18.46;100510.84;5314056;33;33977;-84
2023/04/05 14:31:05;;;;;;;5.25;3.92;;;;;;;18.90;18.36;100507.75;5325582;33;33901;-84
2023/04/05 14:34:08;;;;;;;6.70;4.40;;;;;;;18.83;20.57;100496.09;5313160;33;33917;-85
2023/04/05 14:37:11;;;;;;;5.28;3.70;;;;;;;18.13;19.85;100492.66;5311882;33;34935;-85
2023/04/05 14:40:14;;;;;;;4.30;3.90;;;;;;;18.51;19.60;100504.41;5317974;33;34290;-84
2023/04/05 14:43:20;;;;;;;5.15;4.35;;;;;;;18.46;19.23;100496.09;5324646;33;34607;-84
2023/04/05 14:46:23;;;;;;;4.43;3.78;;;;;;;16.44;20.28;100487.78;5311717;33;34600;-84
2023/04/05 14:49:26;;;;;;;4.12;3.72;;;;;;;15.40;21.89;100502.88;5324745;33;33438;-84
2023/04/05 14:52:30;;;;;;;4.00;3.60;;;;;;;13.66;23.02;100504.87;5314338;33;33500;-84
2023/04/05 14:55:33;;;;;;;4.75;4.10;;;;;;;13.19;24.57;100507.09;5328344;33;34274;-85
2023/04/05 14:58:36;;;;;;;6.45;4.30;;;;;;;12.56;24.90;100504.06;5315397;33;34027;-84
2023/04/05 15:01:41;;;;;;;6.10;4.53;;;;;;;12.22;26.83;100505.47;5312060;33;33945;-84
2023/04/05 15:04:44;;;;;;;7.32;3.92;;;;;;;11.74;25.29;100506.78;5301245;33;33933;-84
2023/04/05 15:07:47;;;;;;;6.50;4.40;;;;;;;11.26;28.95;100508.81;5300253;33;34464;-84
2023/04/05 15:10:50;;;;;;;5.00;4.30;;;;;;;11.04;28.55;100514.00;5325700;33;33981;-84
2023/04/05 15:13:53;;;;;;;7.15;4.50;;;;;;;10.71;27.17;100507.13;5313880;33;33970;-84
2023/04/05 15:16:56;;;;;;;8.05;4.40;;;;;;;10.36;28.12;100509.28;5313057;33;34682;-85
2023/04/05 15:19:59;;;;;;;7.65;4.47;;;;;;;10.30;28.19;100518.06;5311607;33;34188;-85
2023/04/05 15:23:02;;;;;;;6.68;4.20;;;;;;;10.06;29.16;100516.22;5324686;33;35013;-84
2023/04/05 15:26:05;;;;;;;5.28;3.87;;;;;;;10.01;28.66;100518.59;5311954;33;33965;-84
2023/04/05 15:29:08;;;;;;;6.57;4.37;;;;;;;9.84;29.20;100509.69;5311166;33;33603;-84
2023/04/05 15:32:10;;;;;;;7.35;4.78;;;;;;;9.67;31.66;100508.88;5323143;33;33628;-83
2023/04/05 15:35:14;;;;;;;6.43;4.10;;;;;;;9.76;29.83;100511.37;5324394;33;34645;-84
2023/04/05 15:38:17;;;;;;;5.90;4.03;;;;;;;9.48;29.69;100508.22;5324516;33;33969;-85
2023/04/05 15:41:20;;;;;;;7.18;3.85;;;;;;;9.54;30.87;100518.28;5311180;33;33884;-85
2023/04/05 15:44:22;;;;;;;8.40;4.30;;;;;;;9.18;30.91;100515.03;5298958;33;34027;-84
2023/04/05 15:47:25;;;;;;;6.12;4.40;;;;;;;9.14;30.63;100516.38;5310868;33;35101;-84
2023/04/05 15:50:28;;;;;;;4.75;3.90;;;;;;;9.16;30.57;100522.44;5311083;33;33778;-84
2023/04/05 15:53:32;;;;;;;6.18;4.10;;;;;;;9.12;30.79;100515.72;5311320;33;34554;-84
2023/04/05 15:56:36;;;;;;;7.55;4.53;;;;;;;9.00;32.12;100525.09;5299203;33;33422;-85
2023/04/05 15:59:39;;;;;;;5.95;4.12;;;;;;;8.83;31.20;100519.69;5312096;33;33015;-84
2023/04/05 16:02:47;;;;;;;7.90;4.50;;;;;;;8.75;30.83;100522.34;5302177;33;34414;-84
2023/04/05 16:05:50;;;;;;;6.68;4.35;;;;;;;8.66;31.00;100526.00;5313847;33;33895;-85
2023/04/05 16:08:53;;;;;;;5.50;3.90;;;;;;;8.70;30.98;100526.50;5313335;33;35015;-85
2023/04/05 16:11:58;;;;;;;13.23;4.40;;;;;;;8.63;30.68;100523.62;5328393;33;33530;-84
2023/04/05 16:15:00;;;;;;;9.10;3.92;;;;;;;8.59;29.98;100524.94;5330218;33;34379;-85
2023/04/05 16:18:04;;;;;;;4.32;3.92;;;;;;;8.60;30.42;100526.66;5304118;33;34010;-84
2023/04/05 16:21:07;;;;;;;4.65;3.92;;;;;;;8.44;30.20;100529.25;5317693;33;33575;-85
2023/04/05 16:24:10;;;;;;;4.80;3.75;;;;;;;8.40;30.52;100526.03;5312715;33;34496;-84
2023/04/05 16:27:13;;;;;;;5.85;4.05;;;;;;;8.23;31.61;100525.06;5312738;33;33792;-84
2023/04/05 16:30:17;;;;;;;5.25;3.83;;;;;;;8.20;30.90;100532.59;5326457;33;33946;-84
2023/04/05 16:33:20;;;;;;;6.95;4.25;;;;;;;8.19;30.73;100529.09;5314051;33;34048;-84
2023/04/05 16:36:23;;;;;;;7.50;3.92;;;;;;;8.14;30.27;100532.22;5312788;33;34761;-84
2023/04/05 16:39:26;;;;;;;4.00;3.58;;;;;;;8.04;30.79;100527.97;5327689;33;34079;-84
2023/04/05 16:42:29;;;;;;;7.10;3.90;;;;;;;7.91;30.70;100531.06;5302610;33;33902;-85
2023/04/05 16:45:34;;;;;;;3.90;3.50;;;;;;;7.82;31.59;100532.03;5325780;33;33834;-84
2023/04/05 16:48:38;;;;;;;5.43;4.00;;;;;;;7.65;33.70;100529.19;5313053;33;33866;-84
2023/04/05 16:51:41;;;;;;;6.68;3.53;;;;;;;7.58;32.96;100533.50;5312865;33;33766;-84
2023/04/05 16:54:44;;;;;;;7.75;3.33;;;;;;;7.58;31.15;100532.66;5313173;33;33849;-84
